createdAt,value
2018-06-08T00:01:50.668Z,95.90
2018-06-08T00:04:19.450Z,96.00
2018-06-08T00:06:48.161Z,96.00
2018-06-08T00:09:16.902Z,95.80
2018-06-08T00:11:45.669Z,96.50
2018-06-08T00:14:14.381Z,96.20
2018-06-08T00:16:43.133Z,96.00
2018-06-08T00:19:11.863Z,95.40
2018-06-08T00:21:45.530Z,95.60
2018-06-08T00:24:14.237Z,95.90
2018-06-08T00:26:44.132Z,96.20
2018-06-08T00:29:13.011Z,95.90
2018-06-08T00:31:41.709Z,96.00
2018-06-08T00:34:10.494Z,96.20
2018-06-08T00:36:39.214Z,96.50
2018-06-08T00:39:10.026Z,97.00
2018-06-08T00:41:45.105Z,97.20
2018-06-08T00:44:13.845Z,97.30
2018-06-08T00:46:42.554Z,97.80
2018-06-08T00:49:11.270Z,97.00
2018-06-08T00:54:08.566Z,96.20
2018-06-08T00:56:48.506Z,96.00
2018-06-08T00:59:17.238Z,96.20
2018-06-08T01:01:46.001Z,96.70
2018-06-08T01:04:14.717Z,96.70
2018-06-08T01:06:43.429Z,96.70
2018-06-08T01:09:12.153Z,96.80
2018-06-08T01:11:42.013Z,97.00
2018-06-08T01:14:10.706Z,96.90
2018-06-08T01:19:19.581Z,96.80
2018-06-08T01:21:48.290Z,96.60
2018-06-08T01:24:17.029Z,96.40
2018-06-08T01:26:45.757Z,96.20
2018-06-08T01:29:14.478Z,96.20
2018-06-08T01:31:43.193Z,96.30
2018-06-08T01:34:12.093Z,96.50
2018-06-08T01:36:40.801Z,96.90
2018-06-08T01:39:09.519Z,96.90
2018-06-08T01:41:38.321Z,96.90
2018-06-08T01:44:07.218Z,96.80
2018-06-08T01:46:35.929Z,96.70
2018-06-08T01:49:04.678Z,96.50
2018-06-08T01:51:33.413Z,96.50
2018-06-08T01:54:03.174Z,96.40
2018-06-08T01:56:31.897Z,96.50
2018-06-08T01:59:00.605Z,96.40
2018-06-08T02:01:29.333Z,96.40
2018-06-08T02:03:58.077Z,96.10
2018-06-08T02:06:26.786Z,96.10
2018-06-08T02:08:55.501Z,96.40
2018-06-08T02:11:26.465Z,96.60
2018-06-08T02:13:55.171Z,96.50
2018-06-08T02:16:26.084Z,96.60
2018-06-08T02:18:54.741Z,96.80
2018-06-08T02:21:23.455Z,96.80
2018-06-08T02:23:52.357Z,97.00
2018-06-08T02:26:21.072Z,96.90
2018-06-08T02:28:49.817Z,97.20
2018-06-08T02:31:18.737Z,97.70
2018-06-08T02:33:47.496Z,97.20
2018-06-08T02:36:16.206Z,97.20
2018-06-08T02:38:44.929Z,97.10
2018-06-08T02:41:13.654Z,97.20
2018-06-08T02:43:42.385Z,97.30
2018-06-08T02:46:11.098Z,97.30
2018-06-08T02:48:39.830Z,97.40
2018-06-08T02:51:08.585Z,97.30
2018-06-08T02:53:37.324Z,97.40
2018-06-08T02:56:06.057Z,97.90
2018-06-08T02:58:34.762Z,97.70
2018-06-08T03:01:03.486Z,97.50
2018-06-08T03:03:32.234Z,97.40
2018-06-08T03:06:00.950Z,97.30
2018-06-08T03:08:29.685Z,97.40
2018-06-08T03:10:58.449Z,97.50
2018-06-08T03:13:27.185Z,97.70
2018-06-08T03:15:55.929Z,97.70
2018-06-08T03:18:24.721Z,97.70
2018-06-08T03:20:53.435Z,97.90
2018-06-08T03:23:22.159Z,97.50
2018-06-08T03:25:50.869Z,97.60
2018-06-08T03:28:19.609Z,97.70
2018-06-08T03:30:48.344Z,98.60
2018-06-08T03:33:20.214Z,98.80
2018-06-08T03:35:48.954Z,99.20
2018-06-08T03:38:17.668Z,99.40
2018-06-08T03:40:46.377Z,99.20
2018-06-08T03:43:15.089Z,99.20
2018-06-08T03:45:43.954Z,99.00
2018-06-08T03:48:12.665Z,99.00
2018-06-08T03:50:41.401Z,99.10
2018-06-08T03:53:10.201Z,99.00
2018-06-08T03:55:39.845Z,99.20
2018-06-08T03:58:08.721Z,99.20
2018-06-08T04:00:49.313Z,99.10
2018-06-08T04:05:46.450Z,98.80
2018-06-08T04:08:15.193Z,98.40
2018-06-08T04:10:43.909Z,98.60
2018-06-08T04:13:12.623Z,98.50
2018-06-08T04:15:47.557Z,98.50
2018-06-08T04:18:16.265Z,98.50
2018-06-08T04:20:44.981Z,98.30
2018-06-08T04:23:13.688Z,98.40
2018-06-08T04:25:42.449Z,98.60
2018-06-08T04:28:11.110Z,98.50
2018-06-08T04:30:49.521Z,98.60
2018-06-08T04:35:46.653Z,98.70
2018-06-08T04:38:15.387Z,99.10
2018-06-08T04:40:44.116Z,99.80
2018-06-08T04:43:12.818Z,99.90
2018-06-08T04:45:53.309Z,99.90
2018-06-08T04:50:50.422Z,99.90
2018-06-08T04:53:19.138Z,99.90
2018-06-08T04:55:47.850Z,99.90
2018-06-08T04:58:16.610Z,99.90
2018-06-08T05:00:45.332Z,99.90
2018-06-08T05:03:14.065Z,99.90
2018-06-08T05:05:42.802Z,99.90
2018-06-08T05:08:11.509Z,99.90
2018-06-08T05:10:45.509Z,99.90
2018-06-08T05:13:14.236Z,99.90
2018-06-08T05:15:42.942Z,99.90
2018-06-08T05:18:11.655Z,99.90
2018-06-08T05:20:40.378Z,99.90
2018-06-08T05:23:09.129Z,99.90
2018-06-08T05:25:37.837Z,99.50
2018-06-08T05:28:06.544Z,99.90
2018-06-08T05:30:35.324Z,99.90
2018-06-08T05:33:04.036Z,99.90
2018-06-08T05:35:32.740Z,99.60
2018-06-08T05:38:01.478Z,99.50
2018-06-08T05:40:30.301Z,99.50
2018-06-08T05:42:59.020Z,99.30
2018-06-08T05:45:27.734Z,99.60
2018-06-08T05:47:56.446Z,99.40
2018-06-08T05:50:25.164Z,99.00
2018-06-08T05:52:53.869Z,98.60
2018-06-08T05:55:22.622Z,98.50
2018-06-08T05:57:51.341Z,98.80
2018-06-08T06:00:20.057Z,98.20
2018-06-08T06:02:55.537Z,99.20
2018-06-08T06:05:31.065Z,98.50
2018-06-08T06:07:59.765Z,98.50
2018-06-08T06:10:37.408Z,98.20
2018-06-08T06:13:06.170Z,98.50
2018-06-08T06:15:35.324Z,98.30
2018-06-08T06:18:04.382Z,98.30
2018-06-08T06:20:33.179Z,98.60
2018-06-08T06:23:02.025Z,98.20
2018-06-08T06:25:31.833Z,97.90
2018-06-08T06:28:00.629Z,97.80
2018-06-08T06:30:31.425Z,97.40
2018-06-08T06:33:00.349Z,97.40
2018-06-08T06:35:30.332Z,97.30
2018-06-08T06:37:59.074Z,96.90
2018-06-08T06:40:32.017Z,96.70
2018-06-08T06:43:08.651Z,96.80
2018-06-08T06:45:37.495Z,97.40
2018-06-08T06:48:06.289Z,97.30
2018-06-08T06:50:35.096Z,97.40
2018-06-08T06:53:04.054Z,97.40
2018-06-08T06:55:32.873Z,97.10
2018-06-08T06:58:01.641Z,97.10
2018-06-08T07:00:30.526Z,97.10
2018-06-08T07:02:59.318Z,97.30
2018-06-08T07:05:28.118Z,97.40
2018-06-08T07:07:56.919Z,97.30
2018-06-08T07:10:25.742Z,97.30
2018-06-08T07:12:54.537Z,97.00
2018-06-08T07:15:23.324Z,97.20
2018-06-08T07:17:52.172Z,97.00
2018-06-08T07:20:29.753Z,95.80
2018-06-08T07:22:58.713Z,96.50
2018-06-08T07:25:29.797Z,96.30
2018-06-08T07:28:00.653Z,95.90
2018-06-08T07:30:29.572Z,95.70
2018-06-08T07:32:58.397Z,95.70
2018-06-08T07:35:28.226Z,95.60
2018-06-08T07:37:57.249Z,95.00
2018-06-08T07:40:26.074Z,93.80
2018-06-08T07:42:54.889Z,94.00
2018-06-08T07:45:23.661Z,93.80
2018-06-08T07:47:52.550Z,93.80
2018-06-08T07:50:36.805Z,92.50
2018-06-08T07:53:05.597Z,91.80
2018-06-08T07:55:38.486Z,91.30
2018-06-08T07:58:07.241Z,89.50
2018-06-08T08:00:36.070Z,90.30
2018-06-08T08:03:04.977Z,90.90
2018-06-08T08:05:33.804Z,89.40
2018-06-08T08:08:02.653Z,90.10
2018-06-08T08:13:06.402Z,89.30
2018-06-08T08:15:43.858Z,88.90
2018-06-08T08:18:12.677Z,89.90
2018-06-08T08:20:41.482Z,88.40
2018-06-08T08:23:12.374Z,90.00
2018-06-08T08:25:41.172Z,89.20
2018-06-08T08:28:09.994Z,89.40
2018-06-08T08:30:38.769Z,88.00
2018-06-08T08:33:07.630Z,86.40
2018-06-08T08:35:40.820Z,84.90
2018-06-08T08:38:09.634Z,85.30
2018-06-08T08:43:06.866Z,87.90
2018-06-08T08:45:35.692Z,85.80
2018-06-08T08:48:04.413Z,84.40
2018-06-08T08:50:34.404Z,84.20
2018-06-08T08:55:49.032Z,85.90
2018-06-08T08:58:17.813Z,84.20
2018-06-08T09:00:46.637Z,84.90
2018-06-08T09:03:15.436Z,84.90
2018-06-08T09:05:44.281Z,85.00
2018-06-08T09:08:13.073Z,83.70
2018-06-08T09:10:42.083Z,83.50
2018-06-08T09:13:10.923Z,82.10
2018-06-08T09:15:39.832Z,82.40
2018-06-08T09:18:22.330Z,83.20
2018-06-08T09:20:51.136Z,82.90
2018-06-08T09:23:19.905Z,82.40
2018-06-08T09:25:48.718Z,81.30
2018-06-08T09:28:17.716Z,82.60
2018-06-08T09:30:46.544Z,82.00
2018-06-08T09:33:19.850Z,80.50
2018-06-08T09:35:48.673Z,83.10
2018-06-08T09:38:30.090Z,80.10
2018-06-08T09:40:58.785Z,79.80
2018-06-08T09:43:27.521Z,81.00
2018-06-08T09:46:14.369Z,78.30
2018-06-08T09:51:36.441Z,78.00
2018-06-08T09:54:13.737Z,79.70
2018-06-08T09:56:43.618Z,76.90
2018-06-08T09:59:12.326Z,77.50
2018-06-08T10:01:42.209Z,79.70
2018-06-08T10:07:10.453Z,76.80
2018-06-08T10:09:39.202Z,74.50
2018-06-08T10:12:07.898Z,68.30
2018-06-08T10:14:36.614Z,72.20
2018-06-08T10:17:05.485Z,73.50
2018-06-08T10:19:34.218Z,72.20
2018-06-08T10:22:02.939Z,71.00
2018-06-08T10:24:31.637Z,71.00
2018-06-08T10:27:06.241Z,71.20
2018-06-08T10:29:34.977Z,72.10
2018-06-08T10:32:03.693Z,72.70
2018-06-08T10:37:00.817Z,72.70
2018-06-08T10:39:29.513Z,70.70
2018-06-08T10:41:58.297Z,76.00
2018-06-08T10:44:27.253Z,71.70
2018-06-08T10:47:02.038Z,71.00
2018-06-08T10:49:30.873Z,71.70
2018-06-08T10:52:13.298Z,70.70
2018-06-08T10:54:41.994Z,71.30
2018-06-08T10:57:10.887Z,69.60
2018-06-08T10:59:42.150Z,71.30
2018-06-08T11:02:10.973Z,73.80
2018-06-08T11:07:08.382Z,74.20
2018-06-08T11:09:37.193Z,75.00
2018-06-08T11:12:05.938Z,73.80
2018-06-08T11:14:34.693Z,75.00
2018-06-08T11:17:03.489Z,72.20
2018-06-08T11:19:32.285Z,74.80
2018-06-08T11:22:01.112Z,74.70
2018-06-08T11:24:29.973Z,73.50
2018-06-08T11:26:58.783Z,73.90
2018-06-08T11:29:33.809Z,73.50
2018-06-08T11:32:02.565Z,74.70
2018-06-08T11:34:38.119Z,70.20
2018-06-08T11:37:06.849Z,73.10
2018-06-08T11:39:35.677Z,75.20
2018-06-08T11:42:05.706Z,73.90
2018-06-08T11:44:34.489Z,74.90
2018-06-08T11:47:03.277Z,75.10
2018-06-08T11:49:32.057Z,72.20
2018-06-08T11:52:00.786Z,69.20
2018-06-08T11:59:38.101Z,66.90
2018-06-08T12:02:17.058Z,63.80
2018-06-08T12:04:45.912Z,65.60
2018-06-08T12:07:14.757Z,65.50
2018-06-08T12:09:57.263Z,63.40
2018-06-08T12:12:26.034Z,61.40
2018-06-08T12:14:55.141Z,61.80
2018-06-08T12:17:24.121Z,61.70
2018-06-08T12:19:52.928Z,60.10
2018-06-08T12:22:21.741Z,61.30
2018-06-08T12:24:57.289Z,59.00
2018-06-08T12:27:35.797Z,62.00
2018-06-08T12:30:04.614Z,60.00
2018-06-08T12:32:44.201Z,57.30
2018-06-08T12:35:12.938Z,58.50
2018-06-08T12:37:48.386Z,61.10
2018-06-08T12:40:17.529Z,57.80
2018-06-08T12:42:50.385Z,60.20
2018-06-08T12:45:19.354Z,57.70
2018-06-08T12:47:48.150Z,60.00
2018-06-08T12:50:27.225Z,56.70
2018-06-08T12:52:56.005Z,56.90
2018-06-08T12:55:25.182Z,58.50
2018-06-08T12:57:54.083Z,54.00
2018-06-08T13:00:35.137Z,56.00
2018-06-08T13:03:04.274Z,55.40
2018-06-08T13:05:32.997Z,56.60
2018-06-08T13:08:01.793Z,57.20
2018-06-08T13:10:30.830Z,56.80
2018-06-08T13:12:59.597Z,58.10
2018-06-08T13:15:28.365Z,55.40
2018-06-08T13:17:57.190Z,58.70
2018-06-08T13:20:26.027Z,58.90
2018-06-08T13:22:55.107Z,56.70
2018-06-08T13:25:24.042Z,54.60
2018-06-08T13:27:52.845Z,53.70
2018-06-08T13:30:25.237Z,56.00
2018-06-08T13:33:00.739Z,56.10
2018-06-08T13:35:29.517Z,55.30
2018-06-08T13:37:58.593Z,55.40
2018-06-08T13:40:27.404Z,55.90
2018-06-08T13:42:56.171Z,57.20
2018-06-08T13:45:25.058Z,56.80
2018-06-08T13:47:53.873Z,56.80
2018-06-08T13:50:22.839Z,56.80
2018-06-08T13:52:57.206Z,55.80
2018-06-08T13:55:26.008Z,55.40
2018-06-08T13:57:54.825Z,56.00
2018-06-08T14:02:57.151Z,55.20
2018-06-08T14:05:25.898Z,54.70
2018-06-08T14:07:54.689Z,54.30
2018-06-08T14:10:23.421Z,54.20
2018-06-08T14:12:54.398Z,54.90
2018-06-08T14:15:23.189Z,53.90
2018-06-08T14:17:52.068Z,52.60
2018-06-08T14:20:21.034Z,52.90
2018-06-08T14:22:49.790Z,51.20
2018-06-08T14:25:18.587Z,51.00
2018-06-08T14:27:47.402Z,51.50
2018-06-08T14:30:17.398Z,52.50
2018-06-08T14:32:46.101Z,51.80
2018-06-08T14:35:14.861Z,51.80
2018-06-08T14:37:43.601Z,48.80
2018-06-08T14:40:12.386Z,48.20
2018-06-08T14:42:41.104Z,49.70
2018-06-08T14:45:19.905Z,52.40
2018-06-08T14:47:48.674Z,51.30
2018-06-08T14:50:17.390Z,51.00
2018-06-08T14:52:46.169Z,52.40
2018-06-08T14:55:14.897Z,52.40
2018-06-08T14:57:43.624Z,52.70
2018-06-08T15:00:12.457Z,54.20
2018-06-08T15:02:41.254Z,54.00
2018-06-08T15:05:10.077Z,53.00
2018-06-08T15:07:38.837Z,53.10
2018-06-08T15:12:58.605Z,55.10
2018-06-08T15:15:27.417Z,56.00
2018-06-08T15:17:56.214Z,54.70
2018-06-08T15:20:24.993Z,56.50
2018-06-08T15:22:53.835Z,54.80
2018-06-08T15:25:22.613Z,55.80
2018-06-08T15:28:05.705Z,56.10
2018-06-08T15:30:34.608Z,56.30
2018-06-08T15:33:03.358Z,55.70
2018-06-08T15:35:32.181Z,55.90
2018-06-08T15:38:01.129Z,57.00
2018-06-08T15:40:29.986Z,56.80
2018-06-08T15:42:58.762Z,56.00
2018-06-08T15:47:56.068Z,57.10
2018-06-08T15:50:24.929Z,54.70
2018-06-08T15:52:53.679Z,54.50
2018-06-08T15:55:22.453Z,54.30
2018-06-08T15:57:52.333Z,55.40
2018-06-08T16:00:21.224Z,53.50
2018-06-08T16:02:59.882Z,51.90
2018-06-08T16:05:28.719Z,51.20
2018-06-08T16:07:57.570Z,50.90
2018-06-08T16:10:26.393Z,51.70
2018-06-08T16:12:55.219Z,53.20
2018-06-08T16:15:24.037Z,55.20
2018-06-08T16:17:54.313Z,55.60
2018-06-08T16:20:23.161Z,56.30
2018-06-08T16:22:54.729Z,52.30
2018-06-08T16:25:23.542Z,51.00
2018-06-08T16:30:20.934Z,53.40
2018-06-08T16:32:51.733Z,54.70
2018-06-08T16:35:20.577Z,54.90
2018-06-08T16:37:49.573Z,53.50
2018-06-08T16:42:47.083Z,50.00
2018-06-08T16:45:15.854Z,51.40
2018-06-08T16:47:45.473Z,52.10
2018-06-08T16:50:14.331Z,52.00
2018-06-08T16:52:43.119Z,52.60
2018-06-08T16:55:11.897Z,52.00
2018-06-08T16:57:40.686Z,51.70
2018-06-08T17:00:14.384Z,52.90
2018-06-08T17:02:43.226Z,53.90
2018-06-08T17:05:20.671Z,54.70
2018-06-08T17:07:49.515Z,56.30
2018-06-08T17:10:18.354Z,57.50
2018-06-08T17:12:47.131Z,57.40
2018-06-08T17:15:15.986Z,57.80
2018-06-08T17:17:44.797Z,58.10
2018-06-08T17:20:17.895Z,57.60
2018-06-08T17:22:46.761Z,58.00
2018-06-08T17:25:15.609Z,57.50
2018-06-08T17:27:44.426Z,57.70
2018-06-08T17:30:13.218Z,58.70
2018-06-08T17:32:42.047Z,59.50
2018-06-08T17:37:39.361Z,58.60
2018-06-08T17:40:08.150Z,57.30
2018-06-08T17:42:36.977Z,56.70
2018-06-08T17:45:05.778Z,56.30
2018-06-08T17:50:03.021Z,55.20
2018-06-08T17:52:32.025Z,54.70
2018-06-08T17:55:00.828Z,53.70
2018-06-08T17:57:29.641Z,50.40
2018-06-08T17:59:58.738Z,50.00
2018-06-08T18:02:30.023Z,51.00
2018-06-08T18:04:58.730Z,51.30
2018-06-08T18:07:27.470Z,51.30
2018-06-08T18:09:56.310Z,51.80
2018-06-08T18:12:25.087Z,51.10
2018-06-08T18:14:53.848Z,52.30
2018-06-08T18:17:22.685Z,53.80
2018-06-08T18:19:52.090Z,55.00
2018-06-08T18:22:21.234Z,56.00
2018-06-08T18:24:51.670Z,56.20
2018-06-08T18:27:20.935Z,56.90
2018-06-08T18:29:50.210Z,58.40
2018-06-08T18:32:19.708Z,58.40
2018-06-08T18:34:48.441Z,58.90
2018-06-08T18:37:17.783Z,59.20
2018-06-08T18:39:46.551Z,59.60
2018-06-08T18:42:15.264Z,60.00
2018-06-08T18:44:43.957Z,60.80
2018-06-08T18:47:12.649Z,61.60
2018-06-08T18:49:41.385Z,61.80
2018-06-08T18:52:10.109Z,61.70
2018-06-08T18:54:38.814Z,61.60
2018-06-08T18:57:07.542Z,61.60
2018-06-08T18:59:36.445Z,61.90
2018-06-08T19:02:05.233Z,62.10
2018-06-08T19:04:34.089Z,64.30
2018-06-08T19:07:02.945Z,64.60
2018-06-08T19:09:31.637Z,64.70
2018-06-08T19:12:00.365Z,65.10
2018-06-08T19:14:29.089Z,65.20
2018-06-08T19:16:57.791Z,65.60
2018-06-08T19:19:26.497Z,67.10
2018-06-08T19:21:55.251Z,68.40
2018-06-08T19:24:23.985Z,67.90
2018-06-08T19:26:53.859Z,67.00
2018-06-08T19:29:23.774Z,67.40
2018-06-08T19:31:54.601Z,68.00
2018-06-08T19:34:25.505Z,70.50
2018-06-08T19:36:54.558Z,71.30
2018-06-08T19:39:23.261Z,70.50
2018-06-08T19:41:51.998Z,70.80
2018-06-08T19:44:20.943Z,69.40
2018-06-08T19:46:49.685Z,69.60
2018-06-08T19:49:18.378Z,70.30
2018-06-08T19:51:47.092Z,70.70
2018-06-08T19:54:15.845Z,71.60
2018-06-08T19:56:44.542Z,72.50
2018-06-08T19:59:13.353Z,73.30
2018-06-08T20:01:42.157Z,73.70
2018-06-08T20:04:10.910Z,73.30
2018-06-08T20:06:39.817Z,73.80
2018-06-08T20:09:08.526Z,74.40
2018-06-08T20:11:37.289Z,73.80
2018-06-08T20:14:06.029Z,75.40
2018-06-08T20:19:03.215Z,74.70
2018-06-08T20:24:02.518Z,77.00
2018-06-08T20:26:31.233Z,77.70
2018-06-08T20:28:59.937Z,77.80
2018-06-08T20:31:30.867Z,78.40
2018-06-08T20:33:59.601Z,78.70
2018-06-08T20:36:28.305Z,79.40
2018-06-08T20:38:57.061Z,78.10
2018-06-08T20:41:25.813Z,80.00
2018-06-08T20:43:58.577Z,80.20
2018-06-08T20:48:55.801Z,80.80
2018-06-08T20:51:24.517Z,81.30
2018-06-08T20:53:53.276Z,81.40
2018-06-08T20:56:22.572Z,81.70
2018-06-08T20:58:51.165Z,81.40
2018-06-08T21:01:19.929Z,81.20
2018-06-08T21:03:48.690Z,82.70
2018-06-08T21:06:17.390Z,82.70
2018-06-08T21:08:46.113Z,82.00
2018-06-08T21:11:14.866Z,83.70
2018-06-08T21:13:43.594Z,82.90
2018-06-08T21:16:12.349Z,84.80
2018-06-08T21:18:41.085Z,85.40
2018-06-08T21:21:09.846Z,87.20
2018-06-08T21:23:38.605Z,86.40
2018-06-08T21:26:07.317Z,87.20
2018-06-08T21:28:36.201Z,87.60
2018-06-08T21:31:04.965Z,88.90
2018-06-08T21:33:33.765Z,88.90
2018-06-08T21:36:02.462Z,90.60
2018-06-08T21:38:31.242Z,89.90
2018-06-08T21:40:59.977Z,90.20
2018-06-08T21:43:28.717Z,91.20
2018-06-08T21:45:57.445Z,91.20
2018-06-08T21:48:26.177Z,91.30
2018-06-08T21:50:54.913Z,92.00
2018-06-08T21:53:23.669Z,92.30
2018-06-08T21:55:52.541Z,92.10
2018-06-08T21:58:21.385Z,92.30
2018-06-08T22:00:50.175Z,92.50
2018-06-08T22:03:18.901Z,92.30
2018-06-08T22:05:47.626Z,92.20
2018-06-08T22:08:16.453Z,93.00
2018-06-08T22:10:45.203Z,92.90
2018-06-08T22:13:13.970Z,93.00
2018-06-08T22:15:42.694Z,93.60
2018-06-08T22:18:11.398Z,93.30
2018-06-08T22:20:49.973Z,93.00
2018-06-08T22:23:18.742Z,93.80
2018-06-08T22:25:47.482Z,93.60
2018-06-08T22:28:16.209Z,93.50
2018-06-08T22:30:44.971Z,93.60
2018-06-08T22:33:13.693Z,94.10
2018-06-08T22:38:14.918Z,94.20
2018-06-08T22:40:43.633Z,94.00
2018-06-08T22:43:12.364Z,93.90
2018-06-08T22:45:54.389Z,93.90
2018-06-08T22:48:23.122Z,93.70
2018-06-08T22:50:51.873Z,93.50
2018-06-08T22:53:20.589Z,93.40
2018-06-08T22:55:49.322Z,93.10
2018-06-08T22:58:18.061Z,93.50
2018-06-08T23:00:46.855Z,93.30
2018-06-08T23:03:15.705Z,93.00
2018-06-08T23:05:44.417Z,93.50
2018-06-08T23:08:13.150Z,93.30
2018-06-08T23:10:41.873Z,93.60
2018-06-08T23:13:10.589Z,93.20
2018-06-08T23:18:07.770Z,93.60
2018-06-08T23:20:36.490Z,93.60
2018-06-08T23:23:05.370Z,93.60
2018-06-08T23:25:34.137Z,93.40
2018-06-08T23:28:02.874Z,93.30
2018-06-08T23:30:31.785Z,93.40
2018-06-08T23:33:00.494Z,93.60
2018-06-08T23:35:29.265Z,93.50
2018-06-08T23:38:00.297Z,93.60
2018-06-08T23:40:29.037Z,93.90
2018-06-08T23:42:57.746Z,94.10
2018-06-08T23:45:26.478Z,93.60
2018-06-08T23:47:55.202Z,93.80
2018-06-08T23:50:24.107Z,94.00
2018-06-08T23:52:52.813Z,93.90
2018-06-08T23:55:21.534Z,94.20
2018-06-08T23:58:04.861Z,94.00
